マドリード/バラハス の空港の天気 - METARとTAF

マドリード・バラハス国際空港 ( LEMD / MAD ) - スペイン マドリード
飛行場実況気象(Metar)
観測時間05/27 09:00 CEST (05/27 07:00 UTC)
風向・風速北北西 1m/s
視程10km以上
天気現象
少しの雲 雲底高度 1830m
気温15℃
湿度77%
気圧1015hPa
METARLEMD 270700Z 33001KT 9999 FEW060 15/11 Q1015 NOSIG
過去の天気等 Google飛行場航空写真 Wunderground天気予報

過去48時間のMETAR

飛行場予報(TAF)
発表時間: 5/27 07:00 CEST (5/27 05:00 UTC)
予報対象時間: 27日8時 CEST ~ 28日14時 CEST
風向・風速不定 2m/s
視程10km以上
少しの雲 雲底高度 1,370m
27日15時 CEST ~ 28日2時 CEST に一時的に
全天の4割程度の塔状積雲 雲底高度 760m
27日18時 CEST ~ 27日21時 CEST に徐々に
風向・風速南西 5m/s
27日18時 CEST ~ 28日3時 CEST に 確率 40% で一時的に
風向・風速不定 8m/s 瞬間風速 14m/s
視程4,000m
天気現象雷 しゅう雨
全天の4割程度の積乱雲 雲底高度 760m
28日12時 CEST ~ 28日14時 CEST に徐々に
風向・風速不定 2m/s
TAF LEMD 270500Z 2706/2812 VRB04KT 9999 FEW045 TX26/2715Z TN13/2806Z
TEMPO 2713/2724 SCT025TCU
BECMG 2716/2719 22010KT
PROB40 TEMPO 2716/2801 VRB15G27KT 4000 TS SHRA SCT025CB
BECMG 2810/2812 VRB04KT